createdAt,value
2018-11-06T00:00:25.372Z,33.08
2018-11-06T00:02:58.764Z,35.25
2018-11-06T00:05:27.048Z,34.18
2018-11-06T00:07:55.462Z,35.17
2018-11-06T00:10:23.158Z,39.90
2018-11-06T00:12:50.974Z,39.92
2018-11-06T00:15:18.762Z,40.00
2018-11-06T00:17:46.585Z,41.33
2018-11-06T00:20:15.495Z,40.88
2018-11-06T00:22:43.818Z,40.60
2018-11-06T00:25:13.047Z,37.83
2018-11-06T00:27:41.165Z,41.73
2018-11-06T00:30:10.803Z,38.85
2018-11-06T00:32:39.373Z,41.73
2018-11-06T00:35:09.070Z,40.23
2018-11-06T00:37:36.785Z,37.13
2018-11-06T00:40:05.171Z,36.53
2018-11-06T00:42:33.621Z,39.00
2018-11-06T00:45:01.498Z,36.93
2018-11-06T00:47:29.758Z,36.75
2018-11-06T00:49:58.459Z,38.73
2018-11-06T00:52:26.140Z,37.25
2018-11-06T00:54:53.916Z,34.67
2018-11-06T00:57:22.318Z,37.53
2018-11-06T00:59:51.153Z,34.30
2018-11-06T01:02:18.840Z,36.00
2018-11-06T01:04:48.041Z,34.90
2018-11-06T01:07:16.035Z,32.45
2018-11-06T01:09:44.345Z,33.28
2018-11-06T01:12:12.641Z,35.03
2018-11-06T01:14:40.367Z,33.80
2018-11-06T01:17:08.270Z,37.48
2018-11-06T01:19:35.881Z,33.83
2018-11-06T01:22:03.604Z,35.05
2018-11-06T01:24:31.396Z,34.00
2018-11-06T01:26:59.721Z,34.83
2018-11-06T01:29:27.774Z,34.80
2018-11-06T01:31:55.522Z,35.15
2018-11-06T01:34:24.552Z,34.92
2018-11-06T01:36:53.598Z,31.70
2018-11-06T01:39:21.601Z,31.42
2018-11-06T01:41:49.265Z,28.02
2018-11-06T01:44:17.465Z,28.47
2018-11-06T01:46:46.400Z,27.82
2018-11-06T01:49:14.165Z,31.97
2018-11-06T01:51:42.441Z,30.65
2018-11-06T01:54:10.649Z,35.85
2018-11-06T01:56:39.229Z,33.63
2018-11-06T01:59:07.250Z,34.92
2018-11-06T02:01:34.909Z,34.23
2018-11-06T02:04:02.944Z,35.20
2018-11-06T02:06:32.031Z,35.05
2018-11-06T02:08:59.783Z,31.27
2018-11-06T02:11:28.154Z,30.68
2018-11-06T02:13:55.915Z,29.90
2018-11-06T02:16:23.779Z,32.00
2018-11-06T02:18:51.453Z,34.70
2018-11-06T02:21:20.506Z,33.18
2018-11-06T02:23:48.229Z,34.92
2018-11-06T02:26:15.897Z,33.42
2018-11-06T02:28:43.648Z,28.42
2018-11-06T02:31:11.241Z,28.80
2018-11-06T02:33:39.150Z,21.60
2018-11-06T02:36:06.825Z,23.00
2018-11-06T02:38:35.035Z,27.90
2018-11-06T02:41:03.583Z,28.15
2018-11-06T02:43:31.201Z,22.05
2018-11-06T02:45:58.957Z,24.77
2018-11-06T02:48:26.679Z,21.23
2018-11-06T02:50:54.506Z,22.50
2018-11-06T02:53:22.373Z,22.75
2018-11-06T02:55:50.762Z,23.40
2018-11-06T02:58:18.335Z,23.20
2018-11-06T03:00:45.944Z,22.00
2018-11-06T03:03:13.602Z,23.35
2018-11-06T03:05:41.416Z,23.50
2018-11-06T03:08:09.050Z,21.23
2018-11-06T03:10:36.725Z,19.87
2018-11-06T03:13:04.950Z,22.42
2018-11-06T03:15:32.732Z,25.82
2018-11-06T03:18:00.339Z,25.88
2018-11-06T03:20:28.082Z,25.00
2018-11-06T03:22:56.964Z,24.35
2018-11-06T03:25:25.198Z,26.87
2018-11-06T03:27:53.640Z,24.98
2018-11-06T03:30:21.290Z,29.40
2018-11-06T03:32:49.613Z,23.90
2018-11-06T03:35:17.927Z,26.37
2018-11-06T03:37:45.628Z,26.17
2018-11-06T03:40:13.577Z,28.27
2018-11-06T03:42:42.552Z,28.07
2018-11-06T03:45:11.609Z,26.23
2018-11-06T03:47:39.313Z,26.42
2018-11-06T03:50:08.636Z,23.87
2018-11-06T03:52:36.352Z,23.42
2018-11-06T03:55:04.409Z,23.10
2018-11-06T03:57:32.285Z,21.02
2018-11-06T04:00:00.607Z,22.00
2018-11-06T04:02:28.275Z,20.68
2018-11-06T04:04:56.025Z,22.25
2018-11-06T04:07:23.724Z,22.52
2018-11-06T04:09:51.597Z,22.90
2018-11-06T04:12:19.817Z,20.27
2018-11-06T04:14:48.328Z,23.35
2018-11-06T04:17:15.929Z,24.92
2018-11-06T04:19:43.684Z,22.25
2018-11-06T04:22:11.478Z,21.10
2018-11-06T04:24:39.361Z,22.17
2018-11-06T04:27:07.671Z,21.12
2018-11-06T04:29:36.589Z,21.85
2018-11-06T04:32:04.383Z,20.77
2018-11-06T04:34:32.030Z,19.87
2018-11-06T04:36:59.920Z,20.97
2018-11-06T04:39:27.677Z,20.17
2018-11-06T04:41:55.321Z,20.27
2018-11-06T04:44:23.095Z,21.17
2018-11-06T04:46:51.359Z,18.35
2018-11-06T04:49:20.369Z,18.92
2018-11-06T04:51:47.969Z,19.98
2018-11-06T04:54:15.613Z,18.25
2018-11-06T04:56:43.267Z,17.60
2018-11-06T04:59:10.916Z,17.40
2018-11-06T05:01:38.601Z,17.25
2018-11-06T05:04:06.300Z,16.48
2018-11-06T05:06:33.987Z,16.20
2018-11-06T05:09:01.889Z,16.73
2018-11-06T05:11:30.198Z,17.07
2018-11-06T05:13:58.590Z,19.57
2018-11-06T05:16:26.425Z,20.08
2018-11-06T05:18:54.419Z,17.25
2018-11-06T05:21:23.006Z,18.95
2018-11-06T05:23:50.992Z,18.45
2018-11-06T05:26:19.361Z,19.32
2018-11-06T05:28:47.669Z,21.77
2018-11-06T05:31:15.611Z,20.62
2018-11-06T05:33:43.360Z,20.30
2018-11-06T05:36:11.944Z,21.17
2018-11-06T05:38:39.972Z,21.95
2018-11-06T05:41:08.125Z,23.25
2018-11-06T05:43:37.053Z,20.40
2018-11-06T05:46:05.029Z,21.85
2018-11-06T05:48:32.765Z,22.32
2018-11-06T05:51:00.737Z,23.05
2018-11-06T05:53:29.009Z,23.40
2018-11-06T05:55:58.107Z,25.75
2018-11-06T05:58:26.201Z,25.97
2018-11-06T06:00:54.442Z,25.48
2018-11-06T06:03:22.970Z,27.52
2018-11-06T06:05:51.165Z,26.02
2018-11-06T06:08:19.044Z,28.35
2018-11-06T06:10:47.847Z,22.45
2018-11-06T06:13:15.493Z,22.37
2018-11-06T06:15:43.245Z,22.85
2018-11-06T06:18:11.125Z,20.35
2018-11-06T06:20:39.393Z,21.50
2018-11-06T06:23:07.770Z,21.27
2018-11-06T06:25:35.642Z,20.92
2018-11-06T06:28:04.466Z,20.08
2018-11-06T06:30:32.259Z,20.88
2018-11-06T06:33:00.336Z,19.07
2018-11-06T06:35:28.510Z,18.50
2018-11-06T06:37:56.990Z,20.32
2018-11-06T06:40:24.909Z,21.02
2018-11-06T06:42:54.036Z,22.60
2018-11-06T06:45:22.154Z,20.68
2018-11-06T06:47:50.630Z,21.25
2018-11-06T06:50:19.474Z,20.68
2018-11-06T06:52:48.439Z,21.02
2018-11-06T06:55:16.869Z,20.35
2018-11-06T06:57:46.153Z,18.98
2018-11-06T07:00:15.641Z,19.55
2018-11-06T07:02:43.351Z,17.95
2018-11-06T07:05:13.337Z,18.30
2018-11-06T07:07:41.958Z,18.85
2018-11-06T07:10:11.664Z,17.20
2018-11-06T07:12:40.206Z,19.50
2018-11-06T07:15:10.478Z,18.48
2018-11-06T07:17:38.201Z,19.55
2018-11-06T07:20:08.534Z,17.45
2018-11-06T07:22:36.758Z,16.90
2018-11-06T07:25:05.923Z,18.12
2018-11-06T07:27:33.712Z,14.70
2018-11-06T07:30:01.478Z,15.68
2018-11-06T07:32:30.738Z,16.82
2018-11-06T07:34:58.833Z,14.93
2018-11-06T07:37:27.793Z,17.27
2018-11-06T07:39:55.669Z,89.37
2018-11-06T07:42:23.363Z,44.83
2018-11-06T07:44:51.133Z,18.60
2018-11-06T07:47:18.863Z,18.77
2018-11-06T07:49:47.161Z,15.78
2018-11-06T07:52:15.389Z,16.85
2018-11-06T07:54:44.437Z,16.25
2018-11-06T07:57:12.173Z,21.23
2018-11-06T07:59:40.086Z,19.45
2018-11-06T08:02:08.378Z,17.87
2018-11-06T08:04:36.181Z,18.62
2018-11-06T08:07:04.473Z,18.15
2018-11-06T08:09:32.857Z,17.50
2018-11-06T08:12:00.679Z,16.90
2018-11-06T08:14:28.566Z,20.25
2018-11-06T08:16:56.973Z,19.45
2018-11-06T08:19:24.934Z,19.12
2018-11-06T08:21:52.638Z,19.37
2018-11-06T08:24:20.368Z,19.95
2018-11-06T08:26:48.473Z,20.62
2018-11-06T08:29:16.253Z,38.35
2018-11-06T08:31:44.329Z,16.35
2018-11-06T08:34:11.860Z,17.48
2018-11-06T08:36:39.690Z,21.15
2018-11-06T08:39:08.798Z,19.30
2018-11-06T08:41:36.501Z,18.00
2018-11-06T08:44:04.525Z,19.70
2018-11-06T08:46:32.932Z,19.40
2018-11-06T08:49:00.639Z,52.73
2018-11-06T08:51:28.869Z,138.88
2018-11-06T08:53:56.583Z,51.53
2018-11-06T08:56:24.793Z,18.65
2018-11-06T08:58:53.054Z,18.37
2018-11-06T09:01:20.893Z,19.62
2018-11-06T09:03:48.818Z,19.42
2018-11-06T09:06:16.509Z,20.08
2018-11-06T09:08:44.171Z,32.08
2018-11-06T09:11:11.837Z,30.30
2018-11-06T09:13:41.097Z,20.17
2018-11-06T09:16:08.980Z,15.05
2018-11-06T09:18:37.491Z,17.95
2018-11-06T09:21:05.173Z,18.55
2018-11-06T09:23:33.002Z,16.55
2018-11-06T09:26:00.703Z,15.60
2018-11-06T09:28:28.401Z,16.23
2018-11-06T09:30:57.303Z,16.52
2018-11-06T09:33:25.139Z,16.35
2018-11-06T09:35:52.747Z,14.50
2018-11-06T09:38:21.242Z,14.30
2018-11-06T09:40:48.850Z,14.90
2018-11-06T09:43:16.607Z,16.60
2018-11-06T09:45:44.571Z,19.57
2018-11-06T09:48:12.258Z,17.92
2018-11-06T09:50:39.961Z,17.32
2018-11-06T09:53:08.393Z,17.67
2018-11-06T09:55:36.295Z,15.03
2018-11-06T09:58:04.273Z,17.07
2018-11-06T10:00:32.207Z,17.82
2018-11-06T10:02:59.912Z,136.68
2018-11-06T10:05:27.643Z,123.28
2018-11-06T10:07:55.403Z,13.72
2018-11-06T10:10:23.065Z,14.03
2018-11-06T10:12:50.670Z,14.28
2018-11-06T10:15:19.855Z,35.68
2018-11-06T10:17:48.474Z,19.82
2018-11-06T10:20:17.193Z,16.02
2018-11-06T10:22:46.249Z,29.27
2018-11-06T10:25:13.977Z,23.70
2018-11-06T10:27:42.766Z,50.60
2018-11-06T10:30:12.493Z,93.95
2018-11-06T10:32:40.766Z,27.42
2018-11-06T10:35:09.335Z,28.10
2018-11-06T10:37:37.736Z,27.55
2018-11-06T10:40:08.393Z,24.65
2018-11-06T10:42:36.034Z,25.68
2018-11-06T10:45:04.616Z,23.70
2018-11-06T10:47:32.337Z,23.50
2018-11-06T10:50:00.146Z,23.98
2018-11-06T10:52:28.437Z,21.35
2018-11-06T10:54:56.045Z,18.95
2018-11-06T10:57:25.070Z,19.82
2018-11-06T10:59:54.243Z,19.92
2018-11-06T11:02:27.472Z,19.60
2018-11-06T11:04:55.251Z,18.48
2018-11-06T11:07:23.242Z,17.87
2018-11-06T11:09:50.971Z,18.37
2018-11-06T11:12:18.759Z,18.60
2018-11-06T11:14:47.081Z,18.85
2018-11-06T11:17:15.698Z,19.00
2018-11-06T11:19:43.473Z,17.52
2018-11-06T11:22:11.518Z,20.05
2018-11-06T11:24:39.217Z,19.42
2018-11-06T11:27:08.537Z,19.65
2018-11-06T11:29:36.243Z,19.52
2018-11-06T11:32:04.010Z,16.73
2018-11-06T11:34:31.859Z,17.70
2018-11-06T11:36:59.807Z,19.02
2018-11-06T11:39:27.667Z,18.92
2018-11-06T11:41:55.348Z,19.80
2018-11-06T11:44:23.671Z,18.98
2018-11-06T11:46:51.538Z,18.70
2018-11-06T11:49:19.384Z,21.17
2018-11-06T11:51:47.437Z,20.23
2018-11-06T11:54:15.609Z,19.05
2018-11-06T11:56:43.342Z,19.30
2018-11-06T11:59:11.027Z,20.55
2018-11-06T12:01:38.805Z,19.62
2018-11-06T12:04:07.030Z,19.67
2018-11-06T12:06:34.791Z,18.82
2018-11-06T12:09:04.312Z,19.40
2018-11-06T12:11:32.592Z,17.37
2018-11-06T12:14:00.588Z,21.00
2018-11-06T12:16:28.395Z,21.35
2018-11-06T12:18:56.346Z,20.62
2018-11-06T12:21:23.947Z,21.45
2018-11-06T12:23:51.783Z,20.85
2018-11-06T12:26:19.453Z,20.12
2018-11-06T12:28:47.450Z,20.55
2018-11-06T12:31:15.652Z,17.12
2018-11-06T12:33:43.491Z,20.82
2018-11-06T12:36:11.866Z,21.30
2018-11-06T12:38:39.606Z,19.52
2018-11-06T12:41:07.590Z,20.55
2018-11-06T12:43:35.866Z,21.87
2018-11-06T12:46:03.992Z,20.60
2018-11-06T12:48:33.238Z,20.80
2018-11-06T12:51:01.132Z,20.50
2018-11-06T12:53:28.862Z,19.85
2018-11-06T12:55:56.534Z,19.85
2018-11-06T12:58:24.245Z,19.75
2018-11-06T13:00:52.621Z,18.32
2018-11-06T13:03:21.156Z,20.30
2018-11-06T13:05:49.130Z,20.45
2018-11-06T13:08:16.824Z,19.98
2018-11-06T13:10:44.748Z,19.40
2018-11-06T13:13:13.436Z,19.30
2018-11-06T13:15:41.330Z,18.77
2018-11-06T13:18:09.077Z,18.62
2018-11-06T13:20:36.915Z,19.10
2018-11-06T13:23:04.701Z,18.00
2018-11-06T13:25:32.697Z,17.80
2018-11-06T13:28:01.142Z,19.20
2018-11-06T13:30:28.940Z,16.75
2018-11-06T13:32:56.725Z,19.05
2018-11-06T13:35:24.497Z,19.37
2018-11-06T13:37:52.149Z,19.00
2018-11-06T13:40:20.991Z,18.77
2018-11-06T13:42:48.866Z,19.45
2018-11-06T13:45:25.011Z,19.98
2018-11-06T13:47:53.679Z,21.23
2018-11-06T13:50:22.841Z,19.20
2018-11-06T13:52:50.543Z,20.12
2018-11-06T13:55:24.245Z,19.70
2018-11-06T13:57:53.509Z,19.87
2018-11-06T14:00:21.762Z,21.10
2018-11-06T14:02:49.818Z,21.60
2018-11-06T14:05:18.044Z,23.32
2018-11-06T14:07:45.748Z,22.85
2018-11-06T14:10:13.583Z,22.35
2018-11-06T14:12:42.352Z,22.67
2018-11-06T14:15:10.055Z,25.35
2018-11-06T14:17:38.167Z,22.13
2018-11-06T14:20:07.984Z,22.37
2018-11-06T14:22:35.816Z,20.25
2018-11-06T14:25:03.839Z,21.17
2018-11-06T14:27:31.912Z,21.95
2018-11-06T14:30:00.796Z,22.00
2018-11-06T14:32:29.193Z,21.30
2018-11-06T14:34:56.865Z,25.82
2018-11-06T14:37:24.933Z,28.02
2018-11-06T14:39:53.353Z,30.48
2018-11-06T14:42:21.192Z,31.10
2018-11-06T14:44:49.403Z,33.50
2018-11-06T14:47:17.638Z,36.42
2018-11-06T14:49:45.552Z,31.93
2018-11-06T14:52:14.742Z,39.15
2018-11-06T14:54:42.601Z,37.23
2018-11-06T14:57:10.452Z,34.43
2018-11-06T14:59:38.204Z,37.00
2018-11-06T15:02:05.852Z,35.88
2018-11-06T15:04:34.439Z,37.35
2018-11-06T15:07:02.354Z,35.78
2018-11-06T15:09:30.218Z,35.73
2018-11-06T15:11:58.275Z,34.45
2018-11-06T15:14:26.561Z,34.08
2018-11-06T15:16:54.330Z,33.78
2018-11-06T15:19:22.616Z,31.52
2018-11-06T15:21:51.494Z,34.30
2018-11-06T15:24:19.755Z,35.68
2018-11-06T15:26:48.772Z,30.80
2018-11-06T15:29:16.672Z,33.65
2018-11-06T15:31:44.617Z,33.13
2018-11-06T15:34:12.793Z,35.13
2018-11-06T15:36:40.959Z,36.33
2018-11-06T15:39:09.223Z,36.70
2018-11-06T15:41:38.835Z,34.10
2018-11-06T15:44:07.033Z,36.15
2018-11-06T15:46:36.727Z,33.53
2018-11-06T15:49:06.162Z,34.85
2018-11-06T15:51:34.247Z,33.30
2018-11-06T15:54:02.450Z,36.38
2018-11-06T15:56:30.650Z,33.18
2018-11-06T15:58:59.103Z,37.55
2018-11-06T16:01:27.127Z,41.18
2018-11-06T16:03:55.306Z,41.00
2018-11-06T16:06:23.256Z,47.73
2018-11-06T16:08:51.542Z,49.48
2018-11-06T16:11:19.626Z,51.70
2018-11-06T16:13:47.686Z,57.85
2018-11-06T16:16:16.027Z,51.30
2018-11-06T16:18:45.411Z,53.83
2018-11-06T16:21:13.356Z,53.73
2018-11-06T16:23:41.403Z,50.43
2018-11-06T16:26:09.610Z,47.83
2018-11-06T16:28:38.160Z,47.43
2018-11-06T16:31:06.088Z,51.68
2018-11-06T16:33:34.531Z,44.90
2018-11-06T16:36:03.815Z,42.48
2018-11-06T16:38:31.860Z,42.75
2018-11-06T16:40:59.702Z,42.53
2018-11-06T16:43:27.673Z,38.02
2018-11-06T16:45:55.453Z,39.33
2018-11-06T16:48:23.471Z,40.43
2018-11-06T16:50:51.475Z,39.18
2018-11-06T16:53:19.639Z,41.55
2018-11-06T16:55:47.589Z,37.73
2018-11-06T16:58:16.367Z,39.95
2018-11-06T17:00:44.433Z,38.08
2018-11-06T17:03:12.479Z,36.95
2018-11-06T17:05:40.924Z,41.73
2018-11-06T17:08:08.907Z,38.55
2018-11-06T17:10:37.369Z,36.33
2018-11-06T17:13:05.688Z,36.30
2018-11-06T17:15:37.297Z,37.45
2018-11-06T17:18:06.077Z,38.90
2018-11-06T17:20:41.534Z,38.25
2018-11-06T17:23:09.534Z,39.83
2018-11-06T17:25:39.914Z,39.92
2018-11-06T17:28:07.925Z,39.05
2018-11-06T17:30:36.176Z,39.73
2018-11-06T17:33:05.208Z,39.33
2018-11-06T17:35:33.857Z,38.65
2018-11-06T17:38:01.949Z,40.98
2018-11-06T17:40:30.303Z,40.45
2018-11-06T17:42:59.158Z,38.13
2018-11-06T17:45:28.016Z,41.20
2018-11-06T17:47:56.563Z,40.28
2018-11-06T17:50:24.723Z,42.03
2018-11-06T17:52:52.714Z,41.75
2018-11-06T17:55:21.091Z,42.17
2018-11-06T17:57:48.654Z,44.27
2018-11-06T18:00:19.340Z,44.33
2018-11-06T18:02:47.442Z,41.25
2018-11-06T18:05:17.568Z,42.27
2018-11-06T18:07:46.014Z,44.05
2018-11-06T18:10:15.604Z,46.40
2018-11-06T18:12:43.871Z,45.67
2018-11-06T18:15:11.671Z,43.58
2018-11-06T18:17:40.973Z,40.83
2018-11-06T18:20:10.858Z,43.40
2018-11-06T18:22:39.336Z,39.15
2018-11-06T18:25:07.968Z,40.08
2018-11-06T18:27:35.961Z,40.48
2018-11-06T18:30:04.893Z,38.05
2018-11-06T18:32:33.339Z,39.73
2018-11-06T18:35:01.097Z,36.10
2018-11-06T18:37:29.090Z,40.33
2018-11-06T18:39:56.869Z,42.70
2018-11-06T18:42:25.157Z,41.42
2018-11-06T18:44:53.814Z,39.33
2018-11-06T18:47:22.558Z,38.92
2018-11-06T18:49:50.522Z,38.38
2018-11-06T18:52:18.408Z,38.38
2018-11-06T18:54:46.490Z,36.28
2018-11-06T18:57:14.418Z,34.27
2018-11-06T18:59:42.214Z,38.48
2018-11-06T19:02:10.451Z,32.70
2018-11-06T19:04:38.353Z,35.00
2018-11-06T19:07:06.550Z,35.15
2018-11-06T19:09:34.558Z,36.13
2018-11-06T19:12:03.649Z,35.92
2018-11-06T19:14:31.636Z,32.33
2018-11-06T19:16:59.598Z,30.02
2018-11-06T19:19:27.439Z,32.75
2018-11-06T19:21:55.251Z,32.33
2018-11-06T19:24:23.022Z,33.35
2018-11-06T19:26:50.896Z,32.63
2018-11-06T19:29:19.307Z,30.80
2018-11-06T19:31:47.658Z,32.67
2018-11-06T19:34:15.532Z,28.42
2018-11-06T19:36:43.345Z,28.67
2018-11-06T19:39:12.478Z,28.10
2018-11-06T19:41:40.790Z,25.95
2018-11-06T19:44:09.224Z,24.67
2018-11-06T19:46:37.339Z,26.77
2018-11-06T19:49:05.843Z,26.40
2018-11-06T19:51:34.383Z,25.55
2018-11-06T19:54:02.497Z,25.30
2018-11-06T19:56:30.376Z,23.07
2018-11-06T19:58:58.308Z,23.65
2018-11-06T20:01:26.596Z,23.50
2018-11-06T20:03:55.623Z,20.88
2018-11-06T20:06:24.074Z,23.07
2018-11-06T20:08:52.064Z,22.17
2018-11-06T20:11:20.047Z,20.25
2018-11-06T20:13:47.917Z,22.10
2018-11-06T20:16:16.626Z,20.72
2018-11-06T20:18:44.514Z,19.40
2018-11-06T20:21:13.358Z,19.73
2018-11-06T20:23:41.908Z,17.35
2018-11-06T20:26:11.388Z,18.77
2018-11-06T20:28:39.458Z,16.93
2018-11-06T20:31:07.434Z,18.20
2018-11-06T20:33:35.640Z,17.23
2018-11-06T20:36:03.852Z,18.12
2018-11-06T20:38:31.738Z,18.23
2018-11-06T20:40:59.790Z,19.10
2018-11-06T20:43:28.332Z,18.40
2018-11-06T20:45:56.283Z,15.20
2018-11-06T20:48:24.121Z,15.90
2018-11-06T20:50:52.039Z,15.85
2018-11-06T20:53:21.305Z,14.18
2018-11-06T20:55:49.264Z,14.93
2018-11-06T20:58:17.599Z,14.60
2018-11-06T21:00:45.596Z,16.82
2018-11-06T21:03:13.457Z,15.68
2018-11-06T21:05:41.313Z,15.15
2018-11-06T21:08:09.668Z,15.43
2018-11-06T21:10:37.703Z,15.30
2018-11-06T21:13:05.482Z,15.98
2018-11-06T21:15:33.404Z,15.13
2018-11-06T21:18:08.291Z,16.05
2018-11-06T21:20:35.971Z,18.05
2018-11-06T21:23:04.344Z,15.45
2018-11-06T21:25:32.104Z,15.60
2018-11-06T21:27:59.899Z,15.00
2018-11-06T21:30:27.677Z,14.20
2018-11-06T21:32:55.440Z,12.82
2018-11-06T21:35:23.821Z,14.13
2018-11-06T21:37:51.744Z,12.78
2018-11-06T21:40:20.726Z,13.80
2018-11-06T21:42:49.729Z,13.38
2018-11-06T21:45:18.005Z,12.33
2018-11-06T21:47:47.777Z,14.63
2018-11-06T21:50:16.420Z,13.50
2018-11-06T21:52:44.196Z,11.83
2018-11-06T21:55:13.830Z,11.83
2018-11-06T21:57:42.552Z,13.10
2018-11-06T22:00:13.061Z,11.80
2018-11-06T22:02:40.947Z,12.10
2018-11-06T22:05:10.778Z,10.98
2018-11-06T22:07:38.998Z,11.50
2018-11-06T22:10:08.716Z,10.93
2018-11-06T22:12:36.765Z,10.88
2018-11-06T22:15:05.700Z,9.75
2018-11-06T22:17:33.392Z,10.40
2018-11-06T22:20:01.169Z,11.30
2018-11-06T22:22:29.362Z,11.53
2018-11-06T22:24:57.973Z,10.98
2018-11-06T22:27:25.860Z,10.53
2018-11-06T22:29:53.598Z,10.18
2018-11-06T22:32:21.402Z,9.30
2018-11-06T22:34:49.178Z,9.40
2018-11-06T22:37:17.062Z,8.93
2018-11-06T22:39:45.175Z,8.83
2018-11-06T22:42:12.951Z,9.38
2018-11-06T22:44:42.148Z,9.50
2018-11-06T22:47:09.986Z,9.85
2018-11-06T22:49:37.904Z,8.48
2018-11-06T22:52:05.885Z,9.48
2018-11-06T22:54:33.532Z,8.20
2018-11-06T22:57:02.620Z,10.20
2018-11-06T22:59:30.319Z,8.38
2018-11-06T23:01:58.245Z,8.30
2018-11-06T23:04:26.151Z,8.18
2018-11-06T23:06:54.263Z,7.62
2018-11-06T23:09:21.861Z,8.20
2018-11-06T23:11:49.659Z,10.50
2018-11-06T23:14:18.745Z,8.98
2018-11-06T23:16:47.733Z,8.35
2018-11-06T23:19:16.076Z,8.68
2018-11-06T23:21:43.939Z,7.87
2018-11-06T23:24:16.066Z,8.98
2018-11-06T23:26:44.461Z,8.73
2018-11-06T23:29:12.879Z,7.58
2018-11-06T23:31:40.656Z,9.45
2018-11-06T23:34:08.828Z,8.38
2018-11-06T23:36:37.696Z,8.53
2018-11-06T23:39:07.509Z,8.08
2018-11-06T23:41:36.235Z,8.78
2018-11-06T23:44:04.368Z,8.50
2018-11-06T23:46:32.123Z,8.83
2018-11-06T23:48:59.880Z,7.92
2018-11-06T23:51:27.671Z,7.97
2018-11-06T23:53:55.677Z,7.75
2018-11-06T23:56:23.685Z,8.15
2018-11-06T23:58:51.411Z,8.23
